sensor_id;sensor_type;location;lat;lon;timestamp;temperature;humidity
15288;DHT22;7745;48.708;9.026;2023-06-14T00:00:02;14.30;99.90
15288;DHT22;7745;48.708;9.026;2023-06-14T00:02:30;14.30;99.90
15288;DHT22;7745;48.708;9.026;2023-06-14T00:04:57;14.30;99.90
15288;DHT22;7745;48.708;9.026;2023-06-14T00:07:34;14.30;99.90
15288;DHT22;7745;48.708;9.026;2023-06-14T00:10:02;14.20;99.90
15288;DHT22;7745;48.708;9.026;2023-06-14T00:12:30;14.00;99.90
15288;DHT22;7745;48.708;9.026;2023-06-14T00:14:57;14.00;99.90
15288;DHT22;7745;48.708;9.026;2023-06-14T00:17:24;14.00;99.90
15288;DHT22;7745;48.708;9.026;2023-06-14T00:19:55;13.90;99.90
15288;DHT22;7745;48.708;9.026;2023-06-14T00:22:23;13.90;99.90
15288;DHT22;7745;48.708;9.026;2023-06-14T00:24:50;13.90;99.90
15288;DHT22;7745;48.708;9.026;2023-06-14T00:27:19;13.90;99.90
15288;DHT22;7745;48.708;9.026;2023-06-14T00:29:45;14.00;99.90
15288;DHT22;7745;48.708;9.026;2023-06-14T00:32:12;13.90;99.90
15288;DHT22;7745;48.708;9.026;2023-06-14T00:34:39;13.80;99.90
15288;DHT22;7745;48.708;9.026;2023-06-14T00:37:06;13.80;99.90
15288;DHT22;7745;48.708;9.026;2023-06-14T00:39:33;13.80;99.90
15288;DHT22;7745;48.708;9.026;2023-06-14T00:42:00;13.70;99.90
15288;DHT22;7745;48.708;9.026;2023-06-14T00:44:28;13.70;99.90
15288;DHT22;7745;48.708;9.026;2023-06-14T00:46:55;13.80;99.90
15288;DHT22;7745;48.708;9.026;2023-06-14T00:49:23;13.80;99.90
15288;DHT22;7745;48.708;9.026;2023-06-14T00:51:50;13.70;99.90
15288;DHT22;7745;48.708;9.026;2023-06-14T00:54:17;13.80;99.90
15288;DHT22;7745;48.708;9.026;2023-06-14T00:56:44;13.60;99.90
15288;DHT22;7745;48.708;9.026;2023-06-14T00:59:11;13.50;99.90
15288;DHT22;7745;48.708;9.026;2023-06-14T01:01:39;13.30;99.90
15288;DHT22;7745;48.708;9.026;2023-06-14T01:04:06;13.30;99.90
15288;DHT22;7745;48.708;9.026;2023-06-14T01:06:40;13.20;99.90
15288;DHT22;7745;48.708;9.026;2023-06-14T01:09:14;13.10;99.90
15288;DHT22;7745;48.708;9.026;2023-06-14T01:11:49;13.20;99.90
15288;DHT22;7745;48.708;9.026;2023-06-14T01:14:18;13.40;99.90
15288;DHT22;7745;48.708;9.026;2023-06-14T01:16:46;13.20;99.90
15288;DHT22;7745;48.708;9.026;2023-06-14T01:19:19;13.20;99.90
15288;DHT22;7745;48.708;9.026;2023-06-14T01:21:48;13.20;99.90
15288;DHT22;7745;48.708;9.026;2023-06-14T01:24:17;13.10;99.90
15288;DHT22;7745;48.708;9.026;2023-06-14T01:26:48;13.00;99.90
15288;DHT22;7745;48.708;9.026;2023-06-14T01:29:22;13.00;99.90
15288;DHT22;7745;48.708;9.026;2023-06-14T01:31:51;12.80;99.90
15288;DHT22;7745;48.708;9.026;2023-06-14T01:34:17;13.00;99.90
15288;DHT22;7745;48.708;9.026;2023-06-14T01:36:45;12.80;99.90
15288;DHT22;7745;48.708;9.026;2023-06-14T01:39:14;12.80;99.90
15288;DHT22;7745;48.708;9.026;2023-06-14T01:41:43;12.70;99.90
15288;DHT22;7745;48.708;9.026;2023-06-14T01:44:12;12.60;99.90
15288;DHT22;7745;48.708;9.026;2023-06-14T01:46:41;12.60;99.90
15288;DHT22;7745;48.708;9.026;2023-06-14T01:49:08;12.70;99.90
15288;DHT22;7745;48.708;9.026;2023-06-14T01:51:35;12.70;99.90
15288;DHT22;7745;48.708;9.026;2023-06-14T01:54:02;12.60;99.90
15288;DHT22;7745;48.708;9.026;2023-06-14T01:56:29;12.60;99.90
15288;DHT22;7745;48.708;9.026;2023-06-14T01:58:57;12.60;99.90
15288;DHT22;7745;48.708;9.026;2023-06-14T02:01:24;12.50;99.90
15288;DHT22;7745;48.708;9.026;2023-06-14T02:03:51;12.50;99.90
15288;DHT22;7745;48.708;9.026;2023-06-14T02:06:19;12.40;99.90
15288;DHT22;7745;48.708;9.026;2023-06-14T02:08:46;12.40;99.90
15288;DHT22;7745;48.708;9.026;2023-06-14T02:11:12;12.40;99.90
15288;DHT22;7745;48.708;9.026;2023-06-14T02:13:39;12.40;99.90
15288;DHT22;7745;48.708;9.026;2023-06-14T02:16:07;12.30;99.90
15288;DHT22;7745;48.708;9.026;2023-06-14T02:18:34;12.30;99.90
15288;DHT22;7745;48.708;9.026;2023-06-14T02:21:01;12.30;99.90
15288;DHT22;7745;48.708;9.026;2023-06-14T02:23:27;12.30;99.90
15288;DHT22;7745;48.708;9.026;2023-06-14T02:25:54;12.30;99.90
15288;DHT22;7745;48.708;9.026;2023-06-14T02:28:21;12.20;99.90
15288;DHT22;7745;48.708;9.026;2023-06-14T02:30:48;12.20;99.90
15288;DHT22;7745;48.708;9.026;2023-06-14T02:33:16;12.20;99.90
15288;DHT22;7745;48.708;9.026;2023-06-14T02:35:43;12.20;99.90
15288;DHT22;7745;48.708;9.026;2023-06-14T02:38:10;12.20;99.90
15288;DHT22;7745;48.708;9.026;2023-06-14T02:40:37;12.20;99.90
15288;DHT22;7745;48.708;9.026;2023-06-14T02:43:04;12.20;99.90
15288;DHT22;7745;48.708;9.026;2023-06-14T02:45:31;12.20;99.90
15288;DHT22;7745;48.708;9.026;2023-06-14T02:47:57;12.20;99.90
15288;DHT22;7745;48.708;9.026;2023-06-14T02:50:26;12.10;99.90
15288;DHT22;7745;48.708;9.026;2023-06-14T02:52:53;12.00;99.90
15288;DHT22;7745;48.708;9.026;2023-06-14T02:55:21;12.00;99.90
15288;DHT22;7745;48.708;9.026;2023-06-14T02:57:48;12.00;99.90
15288;DHT22;7745;48.708;9.026;2023-06-14T03:00:15;12.00;99.90
15288;DHT22;7745;48.708;9.026;2023-06-14T03:02:42;12.00;99.90
15288;DHT22;7745;48.708;9.026;2023-06-14T03:05:10;11.90;99.90
15288;DHT22;7745;48.708;9.026;2023-06-14T03:07:38;11.90;99.90
15288;DHT22;7745;48.708;9.026;2023-06-14T03:10:07;11.90;99.90
15288;DHT22;7745;48.708;9.026;2023-06-14T03:12:35;11.90;99.90
15288;DHT22;7745;48.708;9.026;2023-06-14T03:15:02;11.80;99.90
15288;DHT22;7745;48.708;9.026;2023-06-14T03:17:29;11.80;99.90
15288;DHT22;7745;48.708;9.026;2023-06-14T03:19:59;11.80;99.90
15288;DHT22;7745;48.708;9.026;2023-06-14T03:22:25;11.80;99.90
15288;DHT22;7745;48.708;9.026;2023-06-14T03:24:55;11.80;99.90
15288;DHT22;7745;48.708;9.026;2023-06-14T03:27:22;11.70;99.90
15288;DHT22;7745;48.708;9.026;2023-06-14T03:29:48;11.70;99.90
15288;DHT22;7745;48.708;9.026;2023-06-14T03:32:15;11.70;99.90
15288;DHT22;7745;48.708;9.026;2023-06-14T03:34:42;11.80;99.90
15288;DHT22;7745;48.708;9.026;2023-06-14T03:37:10;11.70;99.90
15288;DHT22;7745;48.708;9.026;2023-06-14T03:39:37;11.70;99.90
15288;DHT22;7745;48.708;9.026;2023-06-14T03:42:12;11.60;99.90
15288;DHT22;7745;48.708;9.026;2023-06-14T03:44:39;11.50;99.90
15288;DHT22;7745;48.708;9.026;2023-06-14T03:47:06;11.50;99.90
15288;DHT22;7745;48.708;9.026;2023-06-14T03:49:33;11.50;99.90
15288;DHT22;7745;48.708;9.026;2023-06-14T03:52:00;11.60;99.90
15288;DHT22;7745;48.708;9.026;2023-06-14T03:54:27;11.60;99.90
15288;DHT22;7745;48.708;9.026;2023-06-14T03:56:54;11.70;99.90
15288;DHT22;7745;48.708;9.026;2023-06-14T03:59:23;11.70;99.90
15288;DHT22;7745;48.708;9.026;2023-06-14T04:01:51;11.80;99.90
15288;DHT22;7745;48.708;9.026;2023-06-14T04:04:18;11.80;99.90
15288;DHT22;7745;48.708;9.026;2023-06-14T04:06:46;11.80;99.90
15288;DHT22;7745;48.708;9.026;2023-06-14T04:09:13;11.80;99.90
15288;DHT22;7745;48.708;9.026;2023-06-14T04:11:40;11.80;99.90
15288;DHT22;7745;48.708;9.026;2023-06-14T04:14:07;11.80;99.90
15288;DHT22;7745;48.708;9.026;2023-06-14T04:16:35;11.80;99.90
15288;DHT22;7745;48.708;9.026;2023-06-14T04:19:02;11.80;99.90
15288;DHT22;7745;48.708;9.026;2023-06-14T04:21:29;11.80;99.90
15288;DHT22;7745;48.708;9.026;2023-06-14T04:23:55;11.80;99.90
15288;DHT22;7745;48.708;9.026;2023-06-14T04:26:22;11.90;99.90
15288;DHT22;7745;48.708;9.026;2023-06-14T04:28:55;12.00;99.90
15288;DHT22;7745;48.708;9.026;2023-06-14T04:31:22;12.10;99.90
15288;DHT22;7745;48.708;9.026;2023-06-14T04:33:51;12.20;99.90
15288;DHT22;7745;48.708;9.026;2023-06-14T04:36:20;12.20;99.90
15288;DHT22;7745;48.708;9.026;2023-06-14T04:38:48;12.30;99.90
15288;DHT22;7745;48.708;9.026;2023-06-14T04:41:14;12.50;99.90
15288;DHT22;7745;48.708;9.026;2023-06-14T04:43:41;12.70;99.90
15288;DHT22;7745;48.708;9.026;2023-06-14T04:46:08;12.90;99.90
15288;DHT22;7745;48.708;9.026;2023-06-14T04:48:36;13.00;99.90
15288;DHT22;7745;48.708;9.026;2023-06-14T04:51:06;13.10;99.90
15288;DHT22;7745;48.708;9.026;2023-06-14T04:53:33;13.50;99.90
15288;DHT22;7745;48.708;9.026;2023-06-14T04:56:00;13.50;99.90
15288;DHT22;7745;48.708;9.026;2023-06-14T04:58:28;13.70;99.90
15288;DHT22;7745;48.708;9.026;2023-06-14T05:00:55;13.90;99.90
15288;DHT22;7745;48.708;9.026;2023-06-14T05:03:24;13.90;99.90
15288;DHT22;7745;48.708;9.026;2023-06-14T05:05:52;14.00;99.90
15288;DHT22;7745;48.708;9.026;2023-06-14T05:08:20;14.10;99.90
15288;DHT22;7745;48.708;9.026;2023-06-14T05:10:48;14.10;99.90
15288;DHT22;7745;48.708;9.026;2023-06-14T05:13:15;14.30;99.90
15288;DHT22;7745;48.708;9.026;2023-06-14T05:15:42;14.30;99.90
15288;DHT22;7745;48.708;9.026;2023-06-14T05:18:09;14.40;99.90
15288;DHT22;7745;48.708;9.026;2023-06-14T05:20:36;14.60;99.90
15288;DHT22;7745;48.708;9.026;2023-06-14T05:23:03;14.60;99.90
15288;DHT22;7745;48.708;9.026;2023-06-14T05:25:31;14.80;99.90
15288;DHT22;7745;48.708;9.026;2023-06-14T05:27:58;14.90;99.90
15288;DHT22;7745;48.708;9.026;2023-06-14T05:30:25;15.00;99.90
15288;DHT22;7745;48.708;9.026;2023-06-14T05:32:55;15.20;99.90
15288;DHT22;7745;48.708;9.026;2023-06-14T05:35:21;15.30;99.90
15288;DHT22;7745;48.708;9.026;2023-06-14T05:37:49;15.60;99.90
15288;DHT22;7745;48.708;9.026;2023-06-14T05:40:15;15.70;99.90
15288;DHT22;7745;48.708;9.026;2023-06-14T05:42:44;15.90;99.90
15288;DHT22;7745;48.708;9.026;2023-06-14T05:45:11;16.10;99.90
15288;DHT22;7745;48.708;9.026;2023-06-14T05:47:39;16.40;99.90
15288;DHT22;7745;48.708;9.026;2023-06-14T05:50:07;16.60;99.90
15288;DHT22;7745;48.708;9.026;2023-06-14T05:52:34;16.70;99.90
15288;DHT22;7745;48.708;9.026;2023-06-14T05:55:01;17.00;99.90
15288;DHT22;7745;48.708;9.026;2023-06-14T05:57:27;17.10;99.90
15288;DHT22;7745;48.708;9.026;2023-06-14T05:59:56;17.20;99.90
15288;DHT22;7745;48.708;9.026;2023-06-14T06:02:22;17.30;99.90
15288;DHT22;7745;48.708;9.026;2023-06-14T06:04:49;17.60;99.90
15288;DHT22;7745;48.708;9.026;2023-06-14T06:07:16;17.80;99.90
15288;DHT22;7745;48.708;9.026;2023-06-14T06:09:43;17.90;99.90
15288;DHT22;7745;48.708;9.026;2023-06-14T06:12:10;18.10;99.90
15288;DHT22;7745;48.708;9.026;2023-06-14T06:14:37;18.20;99.90
15288;DHT22;7745;48.708;9.026;2023-06-14T06:17:06;18.20;99.90
15288;DHT22;7745;48.708;9.026;2023-06-14T06:19:33;18.40;99.90
15288;DHT22;7745;48.708;9.026;2023-06-14T06:21:59;18.60;99.90
15288;DHT22;7745;48.708;9.026;2023-06-14T06:24:26;18.70;99.90
15288;DHT22;7745;48.708;9.026;2023-06-14T06:26:53;18.70;99.90
15288;DHT22;7745;48.708;9.026;2023-06-14T06:29:20;18.80;99.90
15288;DHT22;7745;48.708;9.026;2023-06-14T06:31:47;18.80;99.90
15288;DHT22;7745;48.708;9.026;2023-06-14T06:34:15;18.90;99.90
15288;DHT22;7745;48.708;9.026;2023-06-14T06:36:42;19.10;99.90
15288;DHT22;7745;48.708;9.026;2023-06-14T06:39:08;19.10;99.90
15288;DHT22;7745;48.708;9.026;2023-06-14T06:41:36;19.20;99.90
15288;DHT22;7745;48.708;9.026;2023-06-14T06:44:03;19.40;99.90
15288;DHT22;7745;48.708;9.026;2023-06-14T06:46:30;19.40;99.90
15288;DHT22;7745;48.708;9.026;2023-06-14T06:48:57;19.50;99.90
15288;DHT22;7745;48.708;9.026;2023-06-14T06:51:25;19.60;99.90
15288;DHT22;7745;48.708;9.026;2023-06-14T06:53:53;19.40;99.90
15288;DHT22;7745;48.708;9.026;2023-06-14T06:56:20;19.40;99.90
15288;DHT22;7745;48.708;9.026;2023-06-14T06:58:48;19.40;99.90
15288;DHT22;7745;48.708;9.026;2023-06-14T07:01:15;19.60;99.90
15288;DHT22;7745;48.708;9.026;2023-06-14T07:03:42;19.70;99.90
15288;DHT22;7745;48.708;9.026;2023-06-14T07:06:09;19.80;99.90
15288;DHT22;7745;48.708;9.026;2023-06-14T07:08:37;19.80;99.90
15288;DHT22;7745;48.708;9.026;2023-06-14T07:11:05;20.10;99.90
15288;DHT22;7745;48.708;9.026;2023-06-14T07:13:32;20.00;99.90
15288;DHT22;7745;48.708;9.026;2023-06-14T07:16:00;20.20;99.90
15288;DHT22;7745;48.708;9.026;2023-06-14T07:18:27;20.30;99.90
15288;DHT22;7745;48.708;9.026;2023-06-14T07:20:54;20.40;99.90
15288;DHT22;7745;48.708;9.026;2023-06-14T07:23:21;20.30;99.90
15288;DHT22;7745;48.708;9.026;2023-06-14T07:25:50;20.40;99.90
15288;DHT22;7745;48.708;9.026;2023-06-14T07:28:17;20.40;99.90
15288;DHT22;7745;48.708;9.026;2023-06-14T07:30:44;20.50;99.90
15288;DHT22;7745;48.708;9.026;2023-06-14T07:33:10;20.30;99.90
15288;DHT22;7745;48.708;9.026;2023-06-14T07:35:37;20.20;99.90
15288;DHT22;7745;48.708;9.026;2023-06-14T07:38:04;20.00;99.90
15288;DHT22;7745;48.708;9.026;2023-06-14T07:40:31;20.00;99.90
15288;DHT22;7745;48.708;9.026;2023-06-14T07:42:59;20.10;99.90
15288;DHT22;7745;48.708;9.026;2023-06-14T07:45:27;20.20;99.90
15288;DHT22;7745;48.708;9.026;2023-06-14T07:47:54;20.20;99.90
15288;DHT22;7745;48.708;9.026;2023-06-14T07:50:20;20.20;99.90
15288;DHT22;7745;48.708;9.026;2023-06-14T07:52:48;20.20;99.90
15288;DHT22;7745;48.708;9.026;2023-06-14T07:55:14;20.40;99.90
15288;DHT22;7745;48.708;9.026;2023-06-14T07:57:41;20.60;99.90
15288;DHT22;7745;48.708;9.026;2023-06-14T08:00:12;20.70;99.90
15288;DHT22;7745;48.708;9.026;2023-06-14T08:02:41;20.60;99.90
15288;DHT22;7745;48.708;9.026;2023-06-14T08:05:09;20.70;99.90
15288;DHT22;7745;48.708;9.026;2023-06-14T08:07:36;20.80;99.90
15288;DHT22;7745;48.708;9.026;2023-06-14T08:10:04;20.80;99.90
15288;DHT22;7745;48.708;9.026;2023-06-14T08:12:31;20.80;99.90
15288;DHT22;7745;48.708;9.026;2023-06-14T08:14:57;21.00;99.90
15288;DHT22;7745;48.708;9.026;2023-06-14T08:17:26;20.90;99.90
15288;DHT22;7745;48.708;9.026;2023-06-14T08:19:53;20.90;99.90
15288;DHT22;7745;48.708;9.026;2023-06-14T08:22:22;21.00;99.90
15288;DHT22;7745;48.708;9.026;2023-06-14T08:24:49;21.10;99.90
15288;DHT22;7745;48.708;9.026;2023-06-14T08:27:16;21.00;99.90
15288;DHT22;7745;48.708;9.026;2023-06-14T08:29:43;20.80;99.90
15288;DHT22;7745;48.708;9.026;2023-06-14T08:32:10;20.80;99.90
15288;DHT22;7745;48.708;9.026;2023-06-14T08:34:38;20.80;99.90
15288;DHT22;7745;48.708;9.026;2023-06-14T08:37:05;20.90;99.90
15288;DHT22;7745;48.708;9.026;2023-06-14T08:39:32;21.00;99.90
15288;DHT22;7745;48.708;9.026;2023-06-14T08:42:01;21.30;99.90
15288;DHT22;7745;48.708;9.026;2023-06-14T08:44:28;21.40;99.90
15288;DHT22;7745;48.708;9.026;2023-06-14T08:46:56;21.50;99.90
15288;DHT22;7745;48.708;9.026;2023-06-14T08:49:25;21.60;99.90
15288;DHT22;7745;48.708;9.026;2023-06-14T08:51:58;21.70;99.90
15288;DHT22;7745;48.708;9.026;2023-06-14T08:54:25;21.90;99.90
15288;DHT22;7745;48.708;9.026;2023-06-14T08:56:55;21.80;99.90
15288;DHT22;7745;48.708;9.026;2023-06-14T08:59:24;21.90;99.90
15288;DHT22;7745;48.708;9.026;2023-06-14T09:01:52;22.00;99.90
15288;DHT22;7745;48.708;9.026;2023-06-14T09:04:20;22.00;99.90
15288;DHT22;7745;48.708;9.026;2023-06-14T09:06:47;22.00;99.90
15288;DHT22;7745;48.708;9.026;2023-06-14T09:09:19;22.00;99.90
15288;DHT22;7745;48.708;9.026;2023-06-14T09:11:46;21.90;99.90
15288;DHT22;7745;48.708;9.026;2023-06-14T09:14:13;21.70;99.90
15288;DHT22;7745;48.708;9.026;2023-06-14T09:16:40;21.60;99.90
15288;DHT22;7745;48.708;9.026;2023-06-14T09:19:07;21.70;99.90
15288;DHT22;7745;48.708;9.026;2023-06-14T09:21:34;21.50;99.90
15288;DHT22;7745;48.708;9.026;2023-06-14T09:24:01;21.30;99.90
15288;DHT22;7745;48.708;9.026;2023-06-14T09:26:31;21.40;99.90
15288;DHT22;7745;48.708;9.026;2023-06-14T09:28:58;21.60;99.90
15288;DHT22;7745;48.708;9.026;2023-06-14T09:31:25;21.50;99.90
15288;DHT22;7745;48.708;9.026;2023-06-14T09:33:57;21.60;99.90
15288;DHT22;7745;48.708;9.026;2023-06-14T09:36:24;21.70;99.90
15288;DHT22;7745;48.708;9.026;2023-06-14T09:38:52;22.10;99.90
15288;DHT22;7745;48.708;9.026;2023-06-14T09:41:20;22.10;99.90
15288;DHT22;7745;48.708;9.026;2023-06-14T09:43:48;22.40;99.90
15288;DHT22;7745;48.708;9.026;2023-06-14T09:46:16;22.00;99.90
15288;DHT22;7745;48.708;9.026;2023-06-14T09:48:43;22.10;99.90
15288;DHT22;7745;48.708;9.026;2023-06-14T09:51:13;22.40;99.90
15288;DHT22;7745;48.708;9.026;2023-06-14T09:53:41;22.60;99.90
15288;DHT22;7745;48.708;9.026;2023-06-14T09:56:10;22.50;99.90
15288;DHT22;7745;48.708;9.026;2023-06-14T09:58:39;22.40;99.90
15288;DHT22;7745;48.708;9.026;2023-06-14T10:01:08;22.40;99.90
15288;DHT22;7745;48.708;9.026;2023-06-14T10:03:39;22.50;99.90
15288;DHT22;7745;48.708;9.026;2023-06-14T10:06:08;22.70;99.90
15288;DHT22;7745;48.708;9.026;2023-06-14T10:08:36;22.60;99.90
15288;DHT22;7745;48.708;9.026;2023-06-14T10:11:04;22.50;99.90
15288;DHT22;7745;48.708;9.026;2023-06-14T10:13:32;22.80;99.90
15288;DHT22;7745;48.708;9.026;2023-06-14T10:16:07;23.00;99.90
15288;DHT22;7745;48.708;9.026;2023-06-14T10:18:41;23.00;99.90
15288;DHT22;7745;48.708;9.026;2023-06-14T10:21:15;22.80;99.90
15288;DHT22;7745;48.708;9.026;2023-06-14T10:23:44;22.70;99.90
15288;DHT22;7745;48.708;9.026;2023-06-14T10:26:18;22.60;99.90
15288;DHT22;7745;48.708;9.026;2023-06-14T10:28:56;22.40;99.90
15288;DHT22;7745;48.708;9.026;2023-06-14T10:31:23;22.50;99.90
15288;DHT22;7745;48.708;9.026;2023-06-14T10:34:07;22.30;99.90
15288;DHT22;7745;48.708;9.026;2023-06-14T10:36:34;22.40;99.90
15288;DHT22;7745;48.708;9.026;2023-06-14T10:39:04;22.50;99.90
15288;DHT22;7745;48.708;9.026;2023-06-14T10:41:34;22.60;99.90
15288;DHT22;7745;48.708;9.026;2023-06-14T10:44:38;22.60;99.90
15288;DHT22;7745;48.708;9.026;2023-06-14T10:47:07;22.60;99.90
15288;DHT22;7745;48.708;9.026;2023-06-14T10:49:42;22.40;99.90
15288;DHT22;7745;48.708;9.026;2023-06-14T10:52:10;22.40;99.90
15288;DHT22;7745;48.708;9.026;2023-06-14T10:55:08;22.30;99.90
15288;DHT22;7745;48.708;9.026;2023-06-14T10:57:41;22.50;99.90
15288;DHT22;7745;48.708;9.026;2023-06-14T11:00:09;22.70;99.90
15288;DHT22;7745;48.708;9.026;2023-06-14T11:05:56;23.30;99.90
15288;DHT22;7745;48.708;9.026;2023-06-14T11:08:53;23.20;99.90
15288;DHT22;7745;48.708;9.026;2023-06-14T11:11:25;23.50;99.90
15288;DHT22;7745;48.708;9.026;2023-06-14T11:13:57;23.90;99.90
15288;DHT22;7745;48.708;9.026;2023-06-14T11:16:26;23.90;99.90
15288;DHT22;7745;48.708;9.026;2023-06-14T11:18:53;24.10;99.90
15288;DHT22;7745;48.708;9.026;2023-06-14T11:21:21;24.00;99.90
15288;DHT22;7745;48.708;9.026;2023-06-14T11:23:50;24.10;99.90
15288;DHT22;7745;48.708;9.026;2023-06-14T11:26:24;23.70;99.90
15288;DHT22;7745;48.708;9.026;2023-06-14T11:28:56;23.60;99.90
15288;DHT22;7745;48.708;9.026;2023-06-14T11:31:23;23.40;99.90
15288;DHT22;7745;48.708;9.026;2023-06-14T11:33:51;23.40;99.90
15288;DHT22;7745;48.708;9.026;2023-06-14T11:36:21;23.30;99.90
15288;DHT22;7745;48.708;9.026;2023-06-14T11:38:47;22.90;99.90
15288;DHT22;7745;48.708;9.026;2023-06-14T11:41:14;22.90;99.90
15288;DHT22;7745;48.708;9.026;2023-06-14T11:43:41;23.00;99.90
15288;DHT22;7745;48.708;9.026;2023-06-14T11:46:13;23.00;99.90
15288;DHT22;7745;48.708;9.026;2023-06-14T11:48:41;23.10;99.90
15288;DHT22;7745;48.708;9.026;2023-06-14T11:51:09;23.30;99.90
15288;DHT22;7745;48.708;9.026;2023-06-14T11:53:38;23.20;99.90
15288;DHT22;7745;48.708;9.026;2023-06-14T11:56:05;23.20;99.90
15288;DHT22;7745;48.708;9.026;2023-06-14T11:58:32;23.00;99.90
15288;DHT22;7745;48.708;9.026;2023-06-14T12:00:59;22.90;99.90
15288;DHT22;7745;48.708;9.026;2023-06-14T12:03:26;22.90;99.90
15288;DHT22;7745;48.708;9.026;2023-06-14T12:06:04;23.10;99.90
15288;DHT22;7745;48.708;9.026;2023-06-14T12:08:33;23.20;99.90
15288;DHT22;7745;48.708;9.026;2023-06-14T12:11:10;23.60;99.90
15288;DHT22;7745;48.708;9.026;2023-06-14T12:13:38;23.70;99.90
15288;DHT22;7745;48.708;9.026;2023-06-14T12:16:07;23.60;99.90
15288;DHT22;7745;48.708;9.026;2023-06-14T12:18:35;23.60;99.90
15288;DHT22;7745;48.708;9.026;2023-06-14T12:21:03;23.30;99.90
15288;DHT22;7745;48.708;9.026;2023-06-14T12:23:45;23.30;99.90
15288;DHT22;7745;48.708;9.026;2023-06-14T12:26:14;23.40;99.90
15288;DHT22;7745;48.708;9.026;2023-06-14T12:28:42;23.40;99.90
15288;DHT22;7745;48.708;9.026;2023-06-14T12:31:10;23.50;99.90
15288;DHT22;7745;48.708;9.026;2023-06-14T12:33:38;23.60;99.90
15288;DHT22;7745;48.708;9.026;2023-06-14T12:36:07;23.40;99.90
15288;DHT22;7745;48.708;9.026;2023-06-14T12:38:34;23.30;99.90
15288;DHT22;7745;48.708;9.026;2023-06-14T12:41:01;23.30;99.90
15288;DHT22;7745;48.708;9.026;2023-06-14T12:43:29;23.30;99.90
15288;DHT22;7745;48.708;9.026;2023-06-14T12:45:56;23.40;99.90
15288;DHT22;7745;48.708;9.026;2023-06-14T12:48:23;23.40;99.90
15288;DHT22;7745;48.708;9.026;2023-06-14T12:50:50;23.80;99.90
15288;DHT22;7745;48.708;9.026;2023-06-14T12:53:16;23.70;99.90
15288;DHT22;7745;48.708;9.026;2023-06-14T12:55:43;23.60;99.90
15288;DHT22;7745;48.708;9.026;2023-06-14T12:58:10;23.50;99.90
15288;DHT22;7745;48.708;9.026;2023-06-14T13:00:39;23.20;99.90
15288;DHT22;7745;48.708;9.026;2023-06-14T13:03:06;23.20;99.90
15288;DHT22;7745;48.708;9.026;2023-06-14T13:05:32;23.30;99.90
15288;DHT22;7745;48.708;9.026;2023-06-14T13:07:59;23.30;99.90
15288;DHT22;7745;48.708;9.026;2023-06-14T13:10:26;23.30;99.90
15288;DHT22;7745;48.708;9.026;2023-06-14T13:12:53;23.40;99.90
15288;DHT22;7745;48.708;9.026;2023-06-14T13:15:20;23.50;99.90
15288;DHT22;7745;48.708;9.026;2023-06-14T13:17:48;23.90;99.90
15288;DHT22;7745;48.708;9.026;2023-06-14T13:20:16;24.30;99.90
15288;DHT22;7745;48.708;9.026;2023-06-14T13:22:42;24.20;99.90
15288;DHT22;7745;48.708;9.026;2023-06-14T13:25:09;24.20;99.90
15288;DHT22;7745;48.708;9.026;2023-06-14T13:27:36;24.00;99.90
15288;DHT22;7745;48.708;9.026;2023-06-14T13:30:04;23.90;99.90
15288;DHT22;7745;48.708;9.026;2023-06-14T13:32:31;23.70;99.90
15288;DHT22;7745;48.708;9.026;2023-06-14T13:35:00;23.60;99.90
15288;DHT22;7745;48.708;9.026;2023-06-14T13:37:27;23.50;99.90
15288;DHT22;7745;48.708;9.026;2023-06-14T13:39:53;23.30;99.90
15288;DHT22;7745;48.708;9.026;2023-06-14T13:42:20;23.30;99.90
15288;DHT22;7745;48.708;9.026;2023-06-14T13:44:47;23.60;99.90
15288;DHT22;7745;48.708;9.026;2023-06-14T13:47:14;23.60;99.90
15288;DHT22;7745;48.708;9.026;2023-06-14T13:49:41;23.50;99.90
15288;DHT22;7745;48.708;9.026;2023-06-14T13:52:09;23.60;99.90
15288;DHT22;7745;48.708;9.026;2023-06-14T13:54:37;23.90;99.90
15288;DHT22;7745;48.708;9.026;2023-06-14T13:57:04;23.80;99.90
15288;DHT22;7745;48.708;9.026;2023-06-14T13:59:30;23.80;99.90
15288;DHT22;7745;48.708;9.026;2023-06-14T14:01:58;23.60;99.90
15288;DHT22;7745;48.708;9.026;2023-06-14T14:04:24;23.50;99.90
15288;DHT22;7745;48.708;9.026;2023-06-14T14:06:51;23.80;99.90
15288;DHT22;7745;48.708;9.026;2023-06-14T14:09:19;23.80;99.90
15288;DHT22;7745;48.708;9.026;2023-06-14T14:11:46;23.60;99.90
15288;DHT22;7745;48.708;9.026;2023-06-14T14:14:14;23.60;99.90
15288;DHT22;7745;48.708;9.026;2023-06-14T14:16:41;23.50;99.90
15288;DHT22;7745;48.708;9.026;2023-06-14T14:19:07;23.70;99.90
15288;DHT22;7745;48.708;9.026;2023-06-14T14:21:34;24.00;99.90
15288;DHT22;7745;48.708;9.026;2023-06-14T14:24:01;23.90;99.40
15288;DHT22;7745;48.708;9.026;2023-06-14T14:26:30;24.10;99.90
15288;DHT22;7745;48.708;9.026;2023-06-14T14:28:56;24.30;99.90
15288;DHT22;7745;48.708;9.026;2023-06-14T14:31:23;24.10;99.60
15288;DHT22;7745;48.708;9.026;2023-06-14T14:33:50;24.10;99.90
15288;DHT22;7745;48.708;9.026;2023-06-14T14:36:17;24.10;99.90
15288;DHT22;7745;48.708;9.026;2023-06-14T14:38:44;24.10;99.70
15288;DHT22;7745;48.708;9.026;2023-06-14T14:41:12;24.10;99.90
15288;DHT22;7745;48.708;9.026;2023-06-14T14:43:41;24.00;99.90
15288;DHT22;7745;48.708;9.026;2023-06-14T14:46:07;24.10;99.90
15288;DHT22;7745;48.708;9.026;2023-06-14T14:48:35;24.20;99.90
15288;DHT22;7745;48.708;9.026;2023-06-14T14:51:01;24.40;99.90
15288;DHT22;7745;48.708;9.026;2023-06-14T14:53:28;24.30;99.90
15288;DHT22;7745;48.708;9.026;2023-06-14T14:55:55;24.00;99.80
15288;DHT22;7745;48.708;9.026;2023-06-14T14:58:22;23.90;99.70
15288;DHT22;7745;48.708;9.026;2023-06-14T15:00:50;24.00;99.90
15288;DHT22;7745;48.708;9.026;2023-06-14T15:03:17;24.20;99.90
15288;DHT22;7745;48.708;9.026;2023-06-14T15:05:44;24.10;99.90
15288;DHT22;7745;48.708;9.026;2023-06-14T15:08:11;24.40;99.90
15288;DHT22;7745;48.708;9.026;2023-06-14T15:10:38;24.20;99.90
15288;DHT22;7745;48.708;9.026;2023-06-14T15:13:06;24.00;99.90
15288;DHT22;7745;48.708;9.026;2023-06-14T15:15:33;23.80;99.90
15288;DHT22;7745;48.708;9.026;2023-06-14T15:18:01;23.70;99.90
15288;DHT22;7745;48.708;9.026;2023-06-14T15:20:28;23.70;99.90
15288;DHT22;7745;48.708;9.026;2023-06-14T15:22:55;23.60;99.90
15288;DHT22;7745;48.708;9.026;2023-06-14T15:25:25;23.70;99.90
15288;DHT22;7745;48.708;9.026;2023-06-14T15:27:52;23.60;99.90
15288;DHT22;7745;48.708;9.026;2023-06-14T15:30:18;23.70;99.90
15288;DHT22;7745;48.708;9.026;2023-06-14T15:32:45;23.70;99.90
15288;DHT22;7745;48.708;9.026;2023-06-14T15:35:16;23.80;99.90
15288;DHT22;7745;48.708;9.026;2023-06-14T15:37:43;23.90;99.90
15288;DHT22;7745;48.708;9.026;2023-06-14T15:40:10;23.90;99.90
15288;DHT22;7745;48.708;9.026;2023-06-14T15:42:37;23.80;99.90
15288;DHT22;7745;48.708;9.026;2023-06-14T15:45:05;23.90;99.90
15288;DHT22;7745;48.708;9.026;2023-06-14T15:47:31;23.90;99.90
15288;DHT22;7745;48.708;9.026;2023-06-14T15:49:58;24.00;99.90
15288;DHT22;7745;48.708;9.026;2023-06-14T15:52:26;24.00;99.90